Time;durP1;ratioP1;P1;durP2;ratioP2;P2;SDS_P1;SDS_P2;PMS_P1;PMS_P2;Temp;Humidity;BMP_temperature;BMP_pressure;BME280_temperature;BME280_humidity;BME280_pressure;Samples;Min_cycle;Max_cycle;Signal;HPM_P1;HPM_P2
2022/12/24 00:01:27;;;;;;;0.20;0.20;;;;;;;11.36;71.10;100631.75;5055918;28;20104;-80
2022/12/24 00:03:53;;;;;;;0.25;0.25;;;;;;;11.30;70.83;100638.09;5055497;28;20110;-80
2022/12/24 00:06:22;;;;;;;0.30;0.30;;;;;;;11.35;71.39;100639.75;5055243;28;20041;-80
2022/12/24 00:08:50;;;;;;;1.00;0.95;;;;;;;11.32;71.02;100638.91;5055389;28;20529;-80
2022/12/24 00:11:16;;;;;;;1.13;1.08;;;;;;;11.28;71.31;100637.25;5054806;28;20064;-80
2022/12/24 00:13:42;;;;;;;0.10;0.10;;;;;;;11.32;71.31;100636.25;5055403;28;20021;-80
2022/12/24 00:16:08;;;;;;;0.30;0.30;;;;;;;11.28;71.15;100639.91;5055408;28;20025;-80
2022/12/24 00:18:34;;;;;;;1.15;1.15;;;;;;;11.26;71.55;100647.03;5065722;28;20075;-79
2022/12/24 00:21:02;;;;;;;0.95;0.95;;;;;;;11.19;71.46;100645.47;5066366;28;20052;-80
2022/12/24 00:23:29;;;;;;;0.20;0.20;;;;;;;11.15;71.56;100651.75;5063532;28;20051;-80
2022/12/24 00:25:55;;;;;;;0.10;0.10;;;;;;;11.08;71.67;100648.38;5064389;28;20051;-80
2022/12/24 00:28:22;;;;;;;6.18;3.30;;;;;;;11.12;71.13;100658.00;5062878;28;20033;-79
2022/12/24 00:30:48;;;;;;;0.10;0.10;;;;;;;11.11;71.14;100650.09;5066338;28;20044;-79
2022/12/24 00:33:14;;;;;;;0.10;0.10;;;;;;;11.09;71.43;100660.75;5063730;28;20025;-80
2022/12/24 00:35:40;;;;;;;2.05;1.95;;;;;;;10.98;71.76;100666.31;5062092;28;20483;-80
2022/12/24 00:38:07;;;;;;;0.15;0.15;;;;;;;11.09;71.14;100660.75;5057416;28;20069;-80
2022/12/24 00:40:34;;;;;;;0.55;0.55;;;;;;;11.00;71.26;100677.75;5056051;28;20028;-80
2022/12/24 00:43:00;;;;;;;0.10;0.10;;;;;;;10.95;71.78;100682.31;5057058;28;20490;-80
2022/12/24 00:45:26;;;;;;;0.20;0.20;;;;;;;10.96;71.80;100686.66;5055043;28;20494;-80
2022/12/24 00:47:53;;;;;;;0.17;0.17;;;;;;;10.93;71.59;100686.75;5055973;28;20028;-80
2022/12/24 00:50:19;;;;;;;0.20;0.20;;;;;;;10.88;71.64;100686.00;5054501;28;20029;-80
2022/12/24 00:52:45;;;;;;;0.65;0.65;;;;;;;10.89;71.49;100694.81;5054886;28;20441;-80
2022/12/24 00:55:11;;;;;;;0.10;0.10;;;;;;;10.93;71.78;100697.34;5055124;28;20498;-80
2022/12/24 00:57:37;;;;;;;0.15;0.15;;;;;;;10.83;71.62;100707.31;5054877;28;20108;-80
2022/12/24 01:00:04;;;;;;;0.45;0.45;;;;;;;10.82;71.85;100697.59;5057594;28;20039;-80
2022/12/24 01:02:30;;;;;;;0.17;0.17;;;;;;;10.72;72.11;100708.47;5059657;28;20033;-80
2022/12/24 01:05:11;;;;;;;0.28;0.28;;;;;;;10.68;71.85;100713.81;5056689;28;20515;-80
2022/12/24 01:07:40;;;;;;;0.40;0.40;;;;;;;10.73;71.81;100715.50;5056178;28;20032;-80
2022/12/24 01:10:07;;;;;;;0.20;0.20;;;;;;;10.70;72.43;100710.28;5055257;28;20033;-80
2022/12/24 01:12:34;;;;;;;0.20;0.20;;;;;;;10.70;72.42;100716.44;5054797;28;20025;-80
2022/12/24 01:15:00;;;;;;;0.20;0.20;;;;;;;10.75;72.16;100713.69;5053176;28;20025;-80
2022/12/24 01:17:26;;;;;;;0.38;0.38;;;;;;;10.71;71.98;100717.31;5066734;28;20029;-80
2022/12/24 01:19:52;;;;;;;0.20;0.20;;;;;;;10.62;72.30;100739.59;5061041;28;20043;-80
2022/12/24 01:22:18;;;;;;;0.10;0.10;;;;;;;10.58;72.57;100737.91;5056954;28;20055;-80
2022/12/24 01:24:44;;;;;;;0.20;0.20;;;;;;;10.61;72.58;100744.00;5055726;28;20025;-80
2022/12/24 01:27:10;;;;;;;0.20;0.20;;;;;;;10.63;72.35;100742.22;5057789;28;20037;-80
2022/12/24 01:29:37;;;;;;;0.20;0.20;;;;;;;10.64;72.12;100732.47;5067146;28;20044;-80
2022/12/24 01:32:03;;;;;;;0.20;0.20;;;;;;;10.63;72.61;100736.91;5062195;28;20390;-80
2022/12/24 01:34:29;;;;;;;0.10;0.10;;;;;;;10.60;72.74;100747.56;5056462;28;20025;-80
2022/12/24 01:36:56;;;;;;;0.20;0.20;;;;;;;10.57;72.64;100747.63;5055457;28;20028;-80
2022/12/24 01:39:22;;;;;;;0.20;0.20;;;;;;;10.58;72.91;100752.03;5053660;28;20052;-80
2022/12/24 01:44:40;;;;;;;0.20;0.20;;;;;;;10.56;72.60;100761.78;5053987;28;20138;-80
2022/12/24 01:47:19;;;;;;;0.33;0.33;;;;;;;10.68;72.51;100761.53;5058193;28;20506;-80
2022/12/24 01:49:51;;;;;;;1.48;1.45;;;;;;;10.72;72.26;100766.78;5064853;28;20271;-80
2022/12/24 01:52:25;;;;;;;9.13;1.67;;;;;;;10.71;72.12;100762.38;5060428;28;20025;-80
2022/12/24 01:54:57;;;;;;;0.20;0.20;;;;;;;10.74;72.15;100775.53;5057281;28;20077;-80
2022/12/24 01:57:28;;;;;;;0.82;0.82;;;;;;;10.73;72.36;100773.78;5055360;28;20112;-80
2022/12/24 01:59:59;;;;;;;0.10;0.10;;;;;;;10.73;72.30;100784.38;5060263;28;20036;-79
2022/12/24 02:02:27;;;;;;;0.17;0.17;;;;;;;10.76;72.12;100789.63;5064448;28;20061;-79
2022/12/24 02:05:01;;;;;;;0.17;0.17;;;;;;;10.77;72.14;100792.25;5060045;28;20646;-80
2022/12/24 02:07:28;;;;;;;0.20;0.20;;;;;;;10.79;72.25;100789.56;5054125;28;20035;-80
2022/12/24 02:09:58;;;;;;;0.40;0.40;;;;;;;10.77;72.43;100792.25;5052986;28;20029;-80
2022/12/24 02:12:29;;;;;;;0.20;0.20;;;;;;;10.80;71.99;100796.59;5053987;28;20066;-80
2022/12/24 02:14:55;;;;;;;0.43;0.43;;;;;;;10.74;71.91;100796.75;5054355;28;20503;-80
2022/12/24 02:17:31;;;;;;;8.48;4.60;;;;;;;10.68;72.06;100811.88;5053575;28;20041;-80
2022/12/24 02:23:04;;;;;;;0.20;0.20;;;;;;;10.56;72.27;100804.19;5071127;28;20330;-80
2022/12/24 02:25:56;;;;;;;1.65;1.55;;;;;;;10.51;72.20;100800.75;5071032;28;20067;-80
2022/12/24 02:31:19;;;;;;;0.20;0.20;;;;;;;10.50;71.89;100801.66;5118553;27;1193505;-80
2022/12/24 02:34:09;;;;;;;0.10;0.10;;;;;;;10.44;72.08;100802.66;5132548;27;20039;-80
2022/12/24 02:36:51;;;;;;;0.10;0.10;;;;;;;10.42;72.42;100798.28;5127375;27;20036;-80
2022/12/24 02:39:28;;;;;;;4.45;1.55;;;;;;;10.41;72.69;100804.50;5120137;28;20020;-80
2022/12/24 02:42:04;;;;;;;0.30;0.30;;;;;;;10.41;73.24;100807.16;5113156;28;20012;-82
2022/12/24 02:44:36;;;;;;;0.10;0.10;;;;;;;10.43;73.18;100814.16;5111823;28;20161;-82
2022/12/24 02:47:05;;;;;;;0.20;0.20;;;;;;;10.44;73.60;100807.06;5113076;28;20027;-82
2022/12/24 02:49:31;;;;;;;0.10;0.10;;;;;;;10.51;73.71;100811.34;5110769;28;20035;-79
2022/12/24 02:51:57;;;;;;;0.20;0.20;;;;;;;10.56;74.19;100816.56;5111969;28;20393;-79
2022/12/24 02:54:23;;;;;;;1.75;1.65;;;;;;;10.65;73.88;100819.91;5117880;28;20126;-82
2022/12/24 03:10:51;;;;;;;1.20;1.20;;;;;;;10.76;74.97;100821.44;5114776;27;1411833;-80
2022/12/24 03:13:19;;;;;;;0.20;0.20;;;;;;;10.84;75.10;100823.03;5132786;27;20049;-80
2022/12/24 03:15:47;;;;;;;2.17;1.65;;;;;;;10.93;74.78;100835.22;5125714;27;20104;-81
2022/12/24 03:18:17;;;;;;;1.35;1.25;;;;;;;10.91;75.35;100842.31;5111878;28;20529;-81
2022/12/24 03:20:50;;;;;;;0.60;0.60;;;;;;;10.95;74.80;100844.00;5115003;28;20112;-81
2022/12/24 03:23:17;;;;;;;0.80;0.80;;;;;;;10.99;75.14;100848.31;5114958;28;20024;-81
2022/12/24 03:25:44;;;;;;;0.75;0.75;;;;;;;11.02;74.61;100849.19;5131898;28;20037;-80
2022/12/24 03:28:16;;;;;;;0.20;0.20;;;;;;;11.04;74.85;100848.25;5115066;28;20032;-81
2022/12/24 03:30:45;;;;;;;0.10;0.10;;;;;;;11.07;74.80;100849.94;5113052;28;20465;-81
2022/12/24 03:33:12;;;;;;;0.10;0.10;;;;;;;11.09;75.14;100854.31;5111515;28;20039;-81
2022/12/24 03:35:38;;;;;;;0.32;0.32;;;;;;;11.11;74.92;100855.13;5118618;28;20028;-80
2022/12/24 03:38:04;;;;;;;0.20;0.20;;;;;;;11.16;75.08;100847.97;5122924;28;20497;-80
2022/12/24 03:40:31;;;;;;;0.17;0.17;;;;;;;11.15;75.11;100853.28;5116338;28;20022;-80
2022/12/24 03:42:59;;;;;;;0.30;0.30;;;;;;;11.17;75.37;100854.13;5113164;28;20118;-81
2022/12/24 03:45:25;;;;;;;1.05;1.00;;;;;;;11.22;74.91;100852.25;5112482;28;20059;-81
2022/12/24 03:47:51;;;;;;;0.10;0.10;;;;;;;11.25;74.93;100857.50;5125301;28;20045;-80
2022/12/24 03:50:17;;;;;;;0.20;0.20;;;;;;;11.26;74.92;100853.91;5119347;28;20474;-81
2022/12/24 03:52:44;;;;;;;0.10;0.10;;;;;;;11.28;75.22;100856.56;5114877;28;20034;-80
2022/12/24 03:55:10;;;;;;;0.20;0.20;;;;;;;11.25;75.09;100852.19;5112611;28;20065;-81
2022/12/24 03:57:36;;;;;;;22.30;1.58;;;;;;;11.29;74.95;100859.16;5112037;28;20034;-81
2022/12/24 04:00:05;;;;;;;0.10;0.10;;;;;;;11.25;74.98;100862.81;5111178;28;20031;-81
2022/12/24 04:02:31;;;;;;;0.10;0.10;;;;;;;11.31;75.42;100865.31;5112107;28;20561;-81
2022/12/24 04:04:57;;;;;;;0.10;0.10;;;;;;;11.34;75.01;100867.03;5112187;28;20028;-81
2022/12/24 04:07:24;;;;;;;0.20;0.20;;;;;;;11.33;75.05;100865.28;5111798;28;20034;-80
2022/12/24 04:09:50;;;;;;;0.10;0.10;;;;;;;11.37;74.62;100852.81;5110605;28;20035;-82
2022/12/24 04:12:16;;;;;;;0.40;0.40;;;;;;;11.41;75.20;100863.28;5111398;28;20032;-80
2022/12/24 04:14:42;;;;;;;1.13;1.05;;;;;;;11.42;74.89;100869.50;5110297;28;20030;-80
2022/12/24 04:17:08;;;;;;;0.10;0.10;;;;;;;11.41;74.79;100867.75;5110609;28;20169;-80
2022/12/24 04:19:34;;;;;;;0.10;0.10;;;;;;;11.52;74.42;100864.84;5110251;28;20031;-80
2022/12/24 04:22:00;;;;;;;0.20;0.20;;;;;;;11.52;74.73;100876.31;5097226;28;20028;-80
2022/12/24 04:24:26;;;;;;;0.17;0.17;;;;;;;11.52;74.81;100871.00;5101247;28;20035;-80
2022/12/24 04:26:53;;;;;;;0.10;0.10;;;;;;;11.56;74.47;100877.13;5105406;28;20035;-79
2022/12/24 04:29:19;;;;;;;0.17;0.17;;;;;;;11.56;74.32;100887.75;5100277;28;20039;-80
2022/12/24 04:31:45;;;;;;;0.52;0.52;;;;;;;11.63;74.06;100889.34;5098394;28;20454;-80
2022/12/24 04:34:11;;;;;;;0.20;0.20;;;;;;;11.64;74.00;100875.19;5096794;28;20032;-80
2022/12/24 04:36:37;;;;;;;1.27;0.75;;;;;;;11.64;74.06;100883.13;5096980;28;20054;-80
2022/12/24 04:39:03;;;;;;;0.22;0.22;;;;;;;11.59;73.97;100877.94;5099485;28;20020;-80
2022/12/24 04:41:30;;;;;;;2.22;1.17;;;;;;;11.61;74.09;100877.88;5097197;28;20032;-80
2022/12/24 04:43:57;;;;;;;2.47;2.28;;;;;;;11.61;73.52;100884.09;5096781;28;20424;-80
2022/12/24 04:46:26;;;;;;;0.20;0.20;;;;;;;11.63;74.04;100892.00;5096664;28;20034;-80
2022/12/24 04:48:53;;;;;;;9.45;2.70;;;;;;;11.59;73.47;100893.84;5096409;28;20024;-80
2022/12/24 04:51:20;;;;;;;0.85;0.85;;;;;;;11.60;73.74;100903.56;5097175;28;20032;-81
2022/12/24 04:53:47;;;;;;;6.03;3.30;;;;;;;11.61;73.83;100909.72;5096580;28;20481;-81
2022/12/24 04:56:15;;;;;;;0.57;0.57;;;;;;;11.63;74.16;100899.97;5107251;28;20035;-80
2022/12/24 04:58:42;;;;;;;0.10;0.10;;;;;;;11.65;73.29;100906.09;5104966;28;20031;-80
2022/12/24 05:01:12;;;;;;;0.20;0.20;;;;;;;11.65;73.88;100912.28;5097090;28;20486;-81
2022/12/24 05:03:39;;;;;;;0.35;0.35;;;;;;;11.60;74.10;100906.22;5097134;28;20060;-81
2022/12/24 05:06:07;;;;;;;0.15;0.15;;;;;;;11.64;73.67;100907.03;5096906;28;20097;-81
2022/12/24 05:08:34;;;;;;;0.20;0.20;;;;;;;11.60;74.05;100908.88;5096954;28;20469;-80
2022/12/24 05:11:01;;;;;;;0.20;0.20;;;;;;;11.61;73.87;100910.63;5102154;28;20032;-80
2022/12/24 05:13:28;;;;;;;0.10;0.10;;;;;;;11.56;74.46;100914.28;5102930;28;20032;-80
2022/12/24 05:15:55;;;;;;;0.55;0.55;;;;;;;11.58;74.18;100915.97;5103625;28;20039;-81
2022/12/24 05:18:22;;;;;;;0.10;0.10;;;;;;;11.57;74.30;100910.72;5099097;28;20067;-81
2022/12/24 05:20:48;;;;;;;0.30;0.30;;;;;;;11.57;74.50;100916.88;5096498;28;20031;-81
2022/12/24 05:26:28;;;;;;;0.30;0.30;;;;;;;11.58;74.13;100915.97;5096770;28;20047;-81
2022/12/24 05:28:57;;;;;;;0.20;0.20;;;;;;;11.64;74.57;100912.31;5095629;28;20070;-81
2022/12/24 05:31:25;;;;;;;0.15;0.15;;;;;;;11.57;74.27;100910.72;5102525;28;20069;-81
2022/12/24 05:33:53;;;;;;;1.25;0.55;;;;;;;11.60;74.67;100907.97;5105005;28;20478;-81
2022/12/24 05:36:19;;;;;;;0.20;0.20;;;;;;;11.62;74.29;100911.47;5099944;28;20427;-81
2022/12/24 05:38:46;;;;;;;0.20;0.20;;;;;;;11.61;74.62;100902.66;5101997;28;20024;-81
2022/12/24 05:41:12;;;;;;;0.68;0.68;;;;;;;11.60;74.07;100898.25;5100820;28;20039;-80
2022/12/24 05:43:38;;;;;;;0.20;0.20;;;;;;;11.55;74.13;100902.81;5107662;28;20521;-81
2022/12/24 05:46:07;;;;;;;0.20;0.20;;;;;;;11.57;74.28;100900.97;5101503;28;20026;-81
2022/12/24 05:48:34;;;;;;;0.10;0.10;;;;;;;11.58;74.35;100921.28;5097385;28;20147;-81
2022/12/24 05:51:05;;;;;;;0.17;0.17;;;;;;;11.50;74.49;100925.88;5096679;28;20024;-81
2022/12/24 05:53:32;;;;;;;0.10;0.10;;;;;;;11.47;74.66;100926.81;5096653;28;20028;-81
2022/12/24 05:58:40;;;;;;;0.80;0.45;;;;;;;11.53;73.82;100933.78;5119006;27;1185771;-80
2022/12/24 06:01:08;;;;;;;0.93;0.90;;;;;;;11.44;74.40;100931.31;5133058;27;20110;-80
2022/12/24 06:03:34;;;;;;;0.10;0.10;;;;;;;11.38;74.91;100934.16;5139251;27;20028;-80
2022/12/24 06:08:37;;;;;;;0.32;0.32;;;;;;;11.27;74.45;100935.22;5092900;28;20395;-81
2022/12/24 06:11:06;;;;;;;2.72;2.53;;;;;;;11.26;75.07;100944.09;5079458;28;20041;-81
2022/12/24 06:13:33;;;;;;;0.20;0.20;;;;;;;11.25;75.13;100952.97;5089932;28;20048;-81
2022/12/24 06:16:01;;;;;;;0.20;0.20;;;;;;;11.28;75.12;100952.03;5091122;28;20029;-80
2022/12/24 06:18:29;;;;;;;1.00;1.00;;;;;;;11.21;75.19;100955.72;5090134;28;20033;-81
2022/12/24 06:20:57;;;;;;;1.45;1.45;;;;;;;11.17;75.59;100961.06;5089696;28;20051;-81
2022/12/24 06:23:23;;;;;;;0.10;0.10;;;;;;;11.23;75.55;100973.34;5090574;28;20033;-81
2022/12/24 06:25:50;;;;;;;8.15;1.95;;;;;;;11.20;75.42;100976.03;5080716;28;20029;-81
2022/12/24 06:28:17;;;;;;;0.22;0.22;;;;;;;11.17;75.49;100981.44;5077262;28;20021;-81
2022/12/24 06:30:48;;;;;;;0.63;0.28;;;;;;;11.24;75.68;100971.56;5087834;28;20021;-81
2022/12/24 06:33:15;;;;;;;2.67;1.38;;;;;;;11.27;75.19;100975.03;5074715;28;20064;-81
2022/12/24 06:35:44;;;;;;;0.20;0.20;;;;;;;11.22;75.43;100976.91;5072679;28;20025;-81
2022/12/24 06:38:10;;;;;;;1.30;1.30;;;;;;;11.20;75.76;100970.75;5072372;28;20025;-81
2022/12/24 06:40:38;;;;;;;6.88;2.83;;;;;;;11.19;75.71;100974.31;5071363;28;20024;-81
2022/12/24 06:43:04;;;;;;;0.17;0.17;;;;;;;11.11;75.47;100976.25;5073264;28;20056;-81
2022/12/24 06:45:31;;;;;;;0.20;0.20;;;;;;;11.10;75.20;100974.50;5077207;28;20028;-81
2022/12/24 06:47:57;;;;;;;0.28;0.28;;;;;;;11.04;75.12;100970.19;5074966;28;20490;-81
2022/12/24 06:50:23;;;;;;;0.40;0.40;;;;;;;11.01;75.58;100970.25;5070306;28;20029;-82
2022/12/24 06:52:50;;;;;;;0.20;0.20;;;;;;;10.94;75.26;100972.16;5070822;28;20558;-81
2022/12/24 06:55:16;;;;;;;0.10;0.10;;;;;;;10.91;75.40;100974.84;5070676;28;20089;-81
2022/12/24 06:57:42;;;;;;;2.25;1.70;;;;;;;10.88;75.63;100979.34;5070915;28;20514;-80
2022/12/24 07:00:10;;;;;;;4.63;3.30;;;;;;;10.81;75.48;100984.75;5078650;28;20025;-81
2022/12/24 07:02:41;;;;;;;1.95;1.45;;;;;;;10.75;75.48;100994.59;5078187;28;20082;-81
2022/12/24 07:05:10;;;;;;;0.40;0.40;;;;;;;10.68;75.57;100986.75;5074196;28;20068;-80
2022/12/24 07:07:38;;;;;;;0.30;0.30;;;;;;;10.65;75.90;100983.28;5071032;28;20132;-80
2022/12/24 07:10:05;;;;;;;0.10;0.10;;;;;;;10.62;75.66;101004.56;5070274;28;20037;-80
2022/12/24 07:12:31;;;;;;;0.50;0.50;;;;;;;10.56;75.55;101000.22;5079193;28;20083;-80
2022/12/24 07:14:58;;;;;;;0.20;0.20;;;;;;;10.54;75.62;101004.66;5076735;28;20036;-80
2022/12/24 07:17:24;;;;;;;0.10;0.10;;;;;;;10.46;75.65;101011.91;5071891;28;20025;-80
2022/12/24 07:19:50;;;;;;;0.55;0.55;;;;;;;10.43;75.71;101015.47;5058639;28;20024;-80
2022/12/24 07:22:16;;;;;;;0.52;0.52;;;;;;;10.42;75.90;101018.13;5057653;28;20036;-80
2022/12/24 07:24:42;;;;;;;0.10;0.10;;;;;;;10.39;76.05;101016.41;5062587;28;20037;-80
2022/12/24 07:27:08;;;;;;;0.20;0.20;;;;;;;10.41;76.18;101019.03;5063043;28;20036;-80
2022/12/24 07:29:34;;;;;;;0.20;0.20;;;;;;;10.40;76.23;101025.25;5062104;28;20071;-80
2022/12/24 07:32:00;;;;;;;0.10;0.10;;;;;;;10.38;75.95;101030.56;5058371;28;20044;-80
2022/12/24 07:34:27;;;;;;;0.65;0.65;;;;;;;10.39;76.56;101044.66;5057602;28;20035;-80
2022/12/24 07:36:53;;;;;;;1.05;1.05;;;;;;;10.41;76.70;101042.88;5057218;28;20407;-80
2022/12/24 07:39:19;;;;;;;1.10;0.38;;;;;;;10.45;76.77;101048.09;5056714;28;20064;-80
2022/12/24 07:41:45;;;;;;;0.28;0.28;;;;;;;10.50;76.70;101053.31;5057443;28;20029;-79
2022/12/24 07:44:12;;;;;;;1.30;1.30;;;;;;;10.53;76.75;101053.28;5056741;28;20419;-80
2022/12/24 07:46:39;;;;;;;0.20;0.20;;;;;;;10.61;76.78;101061.09;5056695;28;20029;-81
2022/12/24 07:49:05;;;;;;;1.33;1.25;;;;;;;10.63;77.22;101065.47;5057036;28;20035;-80
2022/12/24 07:51:31;;;;;;;0.10;0.10;;;;;;;10.70;76.70;101081.28;5056736;28;20044;-80
2022/12/24 07:53:57;;;;;;;2.65;2.45;;;;;;;10.70;76.61;101075.97;5061463;28;20017;-81
2022/12/24 07:56:23;;;;;;;0.20;0.20;;;;;;;10.78;76.81;101068.75;5058408;28;20105;-80
2022/12/24 07:58:51;;;;;;;0.45;0.45;;;;;;;10.81;76.50;101069.56;5055445;28;20065;-80
2022/12/24 08:01:18;;;;;;;0.20;0.20;;;;;;;10.88;76.36;101073.00;5056653;28;20403;-80
2022/12/24 08:03:44;;;;;;;1.25;1.25;;;;;;;10.84;76.50;101089.84;5056332;28;20029;-80
2022/12/24 08:06:10;;;;;;;5.57;4.32;;;;;;;10.87;77.09;101089.81;5055637;28;20502;-81
2022/12/24 08:08:37;;;;;;;0.50;0.50;;;;;;;10.89;76.57;101103.91;5056189;28;20040;-80
2022/12/24 08:11:06;;;;;;;0.32;0.32;;;;;;;10.97;76.54;101101.13;5055982;28;20379;-81
2022/12/24 08:13:32;;;;;;;1.35;1.00;;;;;;;10.98;76.59;101098.44;5055847;28;20108;-80
2022/12/24 08:15:59;;;;;;;1.13;1.05;;;;;;;11.03;76.79;101101.03;5065988;28;20502;-79
2022/12/24 08:18:25;;;;;;;0.40;0.40;;;;;;;11.04;76.56;101099.22;5069084;28;20035;-80
2022/12/24 08:20:51;;;;;;;0.45;0.45;;;;;;;11.03;76.77;101103.66;5067623;28;20070;-80
2022/12/24 08:23:18;;;;;;;0.30;0.30;;;;;;;11.07;76.47;101115.09;5064938;28;20032;-80
2022/12/24 08:25:46;;;;;;;0.20;0.20;;;;;;;11.11;76.25;101114.13;5059758;28;20107;-80
2022/12/24 08:28:14;;;;;;;3.88;2.58;;;;;;;11.12;76.26;101123.84;5057513;28;20033;-80
2022/12/24 08:30:41;;;;;;;0.10;0.10;;;;;;;11.08;76.56;101119.47;5054843;28;20041;-80
2022/12/24 08:33:08;;;;;;;4.80;2.60;;;;;;;11.15;76.57;101124.66;5056386;28;20079;-80
2022/12/24 08:35:34;;;;;;;0.20;0.20;;;;;;;11.19;76.19;101132.56;5056011;28;20402;-80
2022/12/24 08:38:00;;;;;;;0.10;0.10;;;;;;;11.27;76.58;101135.97;5056401;28;20076;-80
2022/12/24 08:40:27;;;;;;;0.20;0.20;;;;;;;11.31;76.89;101138.53;5055943;28;20406;-80
2022/12/24 08:42:53;;;;;;;0.35;0.35;;;;;;;11.28;76.50;101146.53;5056168;28;20056;-80
2022/12/24 08:45:19;;;;;;;0.20;0.20;;;;;;;11.39;76.75;101151.66;5055219;28;20036;-80
2022/12/24 08:47:45;;;;;;;0.22;0.22;;;;;;;11.37;76.47;101153.44;5055801;28;20024;-80
2022/12/24 08:50:12;;;;;;;0.50;0.50;;;;;;;11.44;76.34;101159.50;5055034;28;20111;-80
2022/12/24 08:52:38;;;;;;;0.20;0.20;;;;;;;11.53;76.22;101158.47;5055637;28;20383;-80
2022/12/24 08:55:04;;;;;;;0.17;0.17;;;;;;;11.56;76.33;101164.59;5055951;28;20111;-80
2022/12/24 08:57:30;;;;;;;0.20;0.20;;;;;;;11.60;76.15;101171.59;5055731;28;20025;-80
2022/12/24 08:59:56;;;;;;;0.10;0.10;;;;;;;11.63;76.36;101178.63;5055242;28;20043;-80
2022/12/24 09:02:23;;;;;;;0.20;0.20;;;;;;;11.69;75.96;101174.97;5055475;28;20025;-80
2022/12/24 09:04:49;;;;;;;0.75;0.75;;;;;;;11.76;75.43;101181.91;5055855;28;20418;-80
2022/12/24 09:07:15;;;;;;;0.50;0.50;;;;;;;11.82;75.83;101180.03;5055108;28;20025;-80
2022/12/24 09:09:41;;;;;;;0.20;0.20;;;;;;;11.86;75.36;101183.47;5054599;28;20032;-80
2022/12/24 09:12:08;;;;;;;0.15;0.15;;;;;;;11.91;75.37;101181.63;5055838;28;20090;-80
2022/12/24 09:14:34;;;;;;;0.10;0.10;;;;;;;11.91;74.85;101189.59;5054742;28;20059;-80
2022/12/24 09:17:01;;;;;;;0.10;0.10;;;;;;;11.95;74.97;101193.94;5054886;28;20469;-80
2022/12/24 09:19:27;;;;;;;4.13;3.72;;;;;;;11.96;74.82;101198.38;5054768;28;20025;-80
2022/12/24 09:21:53;;;;;;;0.15;0.15;;;;;;;12.03;75.04;101192.94;5055499;28;20054;-80
2022/12/24 09:24:19;;;;;;;1.05;1.02;;;;;;;12.00;74.45;101199.19;5055337;28;20037;-80
2022/12/24 09:26:48;;;;;;;0.17;0.17;;;;;;;12.02;74.76;101209.78;5058630;28;20050;-79
2022/12/24 09:29:14;;;;;;;0.10;0.10;;;;;;;12.03;74.10;101211.53;5063483;28;20036;-79
2022/12/24 09:31:41;;;;;;;0.40;0.40;;;;;;;12.05;74.44;101221.22;5057983;28;20117;-80
2022/12/24 09:34:07;;;;;;;0.10;0.10;;;;;;;12.00;73.56;101216.88;5063984;28;20025;-79
2022/12/24 09:36:34;;;;;;;0.10;0.10;;;;;;;12.08;73.94;101220.28;5056183;28;20029;-80
2022/12/24 09:39:00;;;;;;;0.40;0.40;;;;;;;12.11;73.37;101217.53;5037253;28;20029;-80
2022/12/24 09:44:40;;;;;;;0.47;0.47;;;;;;;12.21;73.21;101223.53;5092591;28;20995;-80
2022/12/24 09:47:21;;;;;;;0.10;0.10;;;;;;;12.19;73.19;101223.56;5072248;28;20066;-81
2022/12/24 09:49:51;;;;;;;0.20;0.20;;;;;;;12.18;73.64;101221.81;5073254;28;20055;-81
2022/12/24 09:52:40;;;;;;;2.40;2.30;;;;;;;12.20;73.40;101230.66;5074095;28;20028;-80
2022/12/24 09:55:24;;;;;;;0.68;0.68;;;;;;;12.26;72.92;101230.53;5071541;28;20051;-80
2022/12/24 09:57:53;;;;;;;0.20;0.20;;;;;;;12.22;72.32;101227.94;5071867;28;20374;-80
2022/12/24 10:00:24;;;;;;;0.17;0.17;;;;;;;12.22;72.66;101230.59;5071327;28;20081;-80
2022/12/24 10:02:51;;;;;;;0.20;0.20;;;;;;;12.26;72.54;101238.50;5071856;28;20071;-79
2022/12/24 10:05:34;;;;;;;16.33;1.67;;;;;;;12.24;72.78;101237.63;5071659;28;20062;-80
2022/12/24 10:08:32;;;;;;;3.05;2.75;;;;;;;12.33;73.26;101246.34;5072382;28;20035;-80
2022/12/24 10:19:15;;;;;;;33.33;1.38;;;;;;;12.30;71.93;101248.13;5112521;27;20136;-80
2022/12/24 10:22:01;;;;;;;0.10;0.10;;;;;;;12.45;72.46;101241.63;5112639;28;20039;-80
2022/12/24 10:24:46;;;;;;;0.10;0.10;;;;;;;12.43;71.93;101239.91;5112885;28;20035;-80
2022/12/24 10:27:14;;;;;;;0.10;0.10;;;;;;;12.52;71.60;101247.66;5111990;28;20127;-80
2022/12/24 10:29:44;;;;;;;0.10;0.10;;;;;;;12.59;71.71;101238.66;5111707;28;20111;-80
2022/12/24 10:32:20;;;;;;;0.10;0.10;;;;;;;12.55;69.92;101252.94;5111771;28;20024;-80
2022/12/24 10:35:12;;;;;;;2.60;2.38;;;;;;;12.45;69.09;101252.25;5120514;28;20036;-80
2022/12/24 10:37:39;;;;;;;0.10;0.10;;;;;;;12.49;69.36;101250.41;5120284;28;20016;-80
2022/12/24 10:40:06;;;;;;;0.90;0.85;;;;;;;12.48;69.80;101259.28;5114565;28;20073;-80
2022/12/24 10:42:41;;;;;;;8.30;2.95;;;;;;;12.46;69.01;101263.75;5113063;28;20097;-80
2022/12/24 10:45:12;;;;;;;1.05;1.05;;;;;;;12.28;68.55;101268.53;5112659;28;20024;-80
2022/12/24 10:47:41;;;;;;;0.10;0.10;;;;;;;12.33;68.80;101270.25;5112967;28;20032;-80
2022/12/24 10:50:33;;;;;;;0.10;0.10;;;;;;;12.40;69.02;101271.84;5119021;28;20063;-80
2022/12/24 10:53:15;;;;;;;0.10;0.10;;;;;;;12.39;67.91;101276.31;5117046;28;20439;-80
2022/12/24 10:55:41;;;;;;;0.10;0.10;;;;;;;12.38;69.81;101266.56;5111647;28;20574;-80
2022/12/24 10:58:16;;;;;;;0.10;0.10;;;;;;;12.42;69.00;101272.69;5111479;28;20036;-80
2022/12/24 11:00:48;;;;;;;0.10;0.10;;;;;;;12.29;68.62;101274.75;5111472;28;20405;-80
2022/12/24 11:09:30;;;;;;;0.50;0.50;;;;;;;12.20;68.29;101273.16;5085316;28;20942;-81
2022/12/24 11:11:59;;;;;;;0.20;0.20;;;;;;;12.34;68.95;101275.53;5072465;28;20036;-81
2022/12/24 11:14:30;;;;;;;0.17;0.17;;;;;;;12.40;68.92;101274.50;5072269;28;20104;-81
2022/12/24 11:16:57;;;;;;;0.55;0.55;;;;;;;12.35;68.55;101276.38;5071852;28;20449;-81
2022/12/24 11:19:38;;;;;;;0.95;0.95;;;;;;;12.37;68.28;101271.94;5071664;28;20067;-81
2022/12/24 11:22:15;;;;;;;0.08;0.08;;;;;;;12.34;68.82;101274.66;5072228;28;20025;-81
2022/12/24 11:24:42;;;;;;;0.10;0.10;;;;;;;12.28;68.67;101271.19;5073151;28;20132;-81
2022/12/24 11:27:37;;;;;;;0.10;0.10;;;;;;;12.38;68.61;101281.66;5071594;28;20121;-81
2022/12/24 11:30:25;;;;;;;0.10;0.10;;;;;;;12.35;68.54;101281.69;5071139;28;20060;-81
2022/12/24 11:35:47;;;;;;;0.95;0.95;;;;;;;12.35;68.35;101282.59;5112974;27;20372;-80
2022/12/24 11:38:20;;;;;;;0.82;0.82;;;;;;;12.37;69.08;101282.56;5113190;28;20032;-80
2022/12/24 11:40:57;;;;;;;0.20;0.20;;;;;;;12.33;68.24;101291.50;5112662;28;20024;-80
2022/12/24 11:43:23;;;;;;;3.20;2.55;;;;;;;12.33;68.28;101283.53;5124803;28;20088;-80
2022/12/24 11:51:17;;;;;;;0.25;0.25;;;;;;;12.44;68.26;101303.66;5071876;28;20389;-80
2022/12/24 11:53:50;;;;;;;0.15;0.15;;;;;;;12.57;68.28;101287.44;5072757;28;20103;-80
2022/12/24 11:59:32;;;;;;;0.43;0.43;;;;;;;12.57;68.03;101293.66;5097862;28;20400;-80
2022/12/24 12:02:17;;;;;;;0.10;0.10;;;;;;;12.50;67.30;101294.69;5092958;28;20551;-80
2022/12/24 12:04:48;;;;;;;0.43;0.43;;;;;;;12.55;67.67;101297.25;5093636;28;20031;-80
2022/12/24 12:10:03;;;;;;;0.10;0.10;;;;;;;12.52;67.26;101292.84;5118210;27;20377;-80
2022/12/24 12:12:35;;;;;;;0.22;0.22;;;;;;;12.57;67.08;101300.75;5114692;28;20053;-80
2022/12/24 12:15:16;;;;;;;0.28;0.28;;;;;;;12.45;66.10;101301.88;5114207;28;20028;-80
2022/12/24 12:18:08;;;;;;;0.10;0.10;;;;;;;12.50;66.35;101297.34;5113347;28;20024;-80
2022/12/24 12:20:41;;;;;;;0.63;0.63;;;;;;;12.53;67.04;101297.28;5111561;28;20101;-80
2022/12/24 12:25:54;;;;;;;0.20;0.20;;;;;;;12.46;66.84;101301.84;5116979;27;1196802;-81
2022/12/24 12:31:10;;;;;;;0.10;0.10;;;;;;;12.47;66.91;101305.38;5072750;28;20402;-81
2022/12/24 12:33:49;;;;;;;0.25;0.25;;;;;;;12.57;66.83;101317.59;5073126;28;20028;-80
2022/12/24 12:36:20;;;;;;;0.15;0.15;;;;;;;12.56;66.64;101329.13;5072768;28;20033;-81
2022/12/24 12:38:46;;;;;;;1.27;0.68;;;;;;;12.56;66.45;101323.81;5072293;28;20075;-80
2022/12/24 12:44:37;;;;;;;0.20;0.20;;;;;;;12.61;67.03;101329.00;5087384;28;20881;-80